Lebanon Springs, New York
Current Conditions -  °F | °C
As of 4:54 AM on Tuesday 27 Jan 2015 (Local Time) from KPSF Reporting Station
Light Snow Light Snow  
Wind Chill:   Ceiling: 1400
Heat Index: 15°   Visibility: 1mi
Dew Point: 10°   Wind: 13mph
Humidity: 80%   Direction: 40°NE
Pressure: 29.68"   Gusts: 20mph
Location:  42.4821°N, 73.3747°W
Report Text: KPSF 270954Z AUTO 04011G17KT 1SM -SN VV014 M09/M12 A2968 RMK AO2 SLP075 P0002 T10941122
Loading
Personal Weather Stations






























Interactive Weather Map New forecast layout! Learn more

10-Day Weather Forecast

Advertisements
Track Severe Weather on mobile